sensor_id;sensor_type;location;lat;lon;timestamp;P1;durP1;ratioP1;P2;durP2;ratioP2
65996;SDS011;52765;52.258;21.052;2022-07-29T00:01:22;6.95;;;3.40;;
65996;SDS011;52765;52.258;21.052;2022-07-29T00:03:47;6.25;;;3.60;;
65996;SDS011;52765;52.258;21.052;2022-07-29T00:06:13;8.02;;;3.58;;
65996;SDS011;52765;52.258;21.052;2022-07-29T00:08:39;4.80;;;3.28;;
65996;SDS011;52765;52.258;21.052;2022-07-29T00:11:05;8.88;;;3.60;;
65996;SDS011;52765;52.258;21.052;2022-07-29T00:13:30;5.57;;;2.70;;
65996;SDS011;52765;52.258;21.052;2022-07-29T00:15:56;4.80;;;2.90;;
65996;SDS011;52765;52.258;21.052;2022-07-29T00:18:22;5.68;;;2.80;;
65996;SDS011;52765;52.258;21.052;2022-07-29T00:20:47;10.32;;;3.03;;
65996;SDS011;52765;52.258;21.052;2022-07-29T00:23:13;6.32;;;3.05;;
65996;SDS011;52765;52.258;21.052;2022-07-29T00:25:38;4.38;;;2.80;;
65996;SDS011;52765;52.258;21.052;2022-07-29T00:28:04;7.00;;;3.05;;
65996;SDS011;52765;52.258;21.052;2022-07-29T00:30:29;8.00;;;2.88;;
65996;SDS011;52765;52.258;21.052;2022-07-29T00:32:55;5.95;;;3.08;;
65996;SDS011;52765;52.258;21.052;2022-07-29T00:35:20;5.38;;;2.95;;
65996;SDS011;52765;52.258;21.052;2022-07-29T00:38:04;6.82;;;3.10;;
65996;SDS011;52765;52.258;21.052;2022-07-29T00:40:30;3.22;;;2.42;;
65996;SDS011;52765;52.258;21.052;2022-07-29T00:42:55;5.10;;;2.95;;
65996;SDS011;52765;52.258;21.052;2022-07-29T00:45:21;7.00;;;2.47;;
65996;SDS011;52765;52.258;21.052;2022-07-29T00:47:47;5.55;;;2.70;;
65996;SDS011;52765;52.258;21.052;2022-07-29T00:50:13;6.28;;;2.92;;
65996;SDS011;52765;52.258;21.052;2022-07-29T00:52:40;7.90;;;2.97;;
65996;SDS011;52765;52.258;21.052;2022-07-29T00:55:11;5.63;;;2.95;;
65996;SDS011;52765;52.258;21.052;2022-07-29T00:57:38;8.07;;;2.95;;
65996;SDS011;52765;52.258;21.052;2022-07-29T01:00:05;5.80;;;2.90;;
65996;SDS011;52765;52.258;21.052;2022-07-29T01:02:33;4.32;;;2.58;;
65996;SDS011;52765;52.258;21.052;2022-07-29T01:04:59;4.18;;;2.75;;
65996;SDS011;52765;52.258;21.052;2022-07-29T01:07:26;3.85;;;2.40;;
65996;SDS011;52765;52.258;21.052;2022-07-29T01:09:52;5.03;;;2.55;;
65996;SDS011;52765;52.258;21.052;2022-07-29T01:12:24;6.78;;;2.80;;
65996;SDS011;52765;52.258;21.052;2022-07-29T01:14:52;4.57;;;2.65;;
65996;SDS011;52765;52.258;21.052;2022-07-29T01:23:22;6.60;;;2.72;;
65996;SDS011;52765;52.258;21.052;2022-07-29T01:31:15;4.53;;;2.78;;
65996;SDS011;52765;52.258;21.052;2022-07-29T01:33:45;4.70;;;3.05;;
65996;SDS011;52765;52.258;21.052;2022-07-29T01:38:59;5.28;;;2.53;;
65996;SDS011;52765;52.258;21.052;2022-07-29T01:41:32;7.90;;;2.67;;
65996;SDS011;52765;52.258;21.052;2022-07-29T01:44:15;5.88;;;2.67;;
65996;SDS011;52765;52.258;21.052;2022-07-29T01:46:49;6.95;;;2.22;;
65996;SDS011;52765;52.258;21.052;2022-07-29T01:49:24;6.90;;;2.45;;
65996;SDS011;52765;52.258;21.052;2022-07-29T01:51:54;3.92;;;2.47;;
65996;SDS011;52765;52.258;21.052;2022-07-29T01:54:26;5.10;;;2.50;;
65996;SDS011;52765;52.258;21.052;2022-07-29T01:56:57;6.03;;;2.50;;
65996;SDS011;52765;52.258;21.052;2022-07-29T01:59:25;4.95;;;2.70;;
65996;SDS011;52765;52.258;21.052;2022-07-29T02:01:52;6.97;;;2.60;;
65996;SDS011;52765;52.258;21.052;2022-07-29T02:04:19;5.88;;;3.50;;
65996;SDS011;52765;52.258;21.052;2022-07-29T02:06:47;5.63;;;2.90;;
65996;SDS011;52765;52.258;21.052;2022-07-29T02:09:16;3.72;;;2.55;;
65996;SDS011;52765;52.258;21.052;2022-07-29T02:11:46;3.92;;;2.20;;
65996;SDS011;52765;52.258;21.052;2022-07-29T02:14:15;5.57;;;2.58;;
65996;SDS011;52765;52.258;21.052;2022-07-29T02:16:43;6.25;;;2.35;;
65996;SDS011;52765;52.258;21.052;2022-07-29T02:19:12;7.15;;;3.05;;
65996;SDS011;52765;52.258;21.052;2022-07-29T02:21:39;7.85;;;2.70;;
65996;SDS011;52765;52.258;21.052;2022-07-29T02:24:05;3.97;;;2.35;;
65996;SDS011;52765;52.258;21.052;2022-07-29T02:26:33;4.57;;;2.10;;
65996;SDS011;52765;52.258;21.052;2022-07-29T02:28:59;4.40;;;2.28;;
65996;SDS011;52765;52.258;21.052;2022-07-29T02:31:28;6.10;;;2.50;;
65996;SDS011;52765;52.258;21.052;2022-07-29T02:33:57;5.65;;;2.72;;
65996;SDS011;52765;52.258;21.052;2022-07-29T02:36:24;6.18;;;2.30;;
65996;SDS011;52765;52.258;21.052;2022-07-29T02:38:52;6.05;;;2.53;;
65996;SDS011;52765;52.258;21.052;2022-07-29T02:44:09;7.18;;;3.03;;
65996;SDS011;52765;52.258;21.052;2022-07-29T02:46:37;8.75;;;3.17;;
65996;SDS011;52765;52.258;21.052;2022-07-29T02:51:44;9.63;;;2.95;;
65996;SDS011;52765;52.258;21.052;2022-07-29T02:54:17;5.07;;;2.47;;
65996;SDS011;52765;52.258;21.052;2022-07-29T02:56:47;4.55;;;2.65;;
65996;SDS011;52765;52.258;21.052;2022-07-29T02:59:14;9.38;;;2.67;;
65996;SDS011;52765;52.258;21.052;2022-07-29T03:01:45;7.72;;;2.65;;
65996;SDS011;52765;52.258;21.052;2022-07-29T03:04:11;7.65;;;2.60;;
65996;SDS011;52765;52.258;21.052;2022-07-29T03:09:49;4.13;;;2.58;;
65996;SDS011;52765;52.258;21.052;2022-07-29T03:12:16;9.52;;;3.08;;
65996;SDS011;52765;52.258;21.052;2022-07-29T03:14:43;3.75;;;2.50;;
65996;SDS011;52765;52.258;21.052;2022-07-29T03:17:09;6.15;;;2.35;;
65996;SDS011;52765;52.258;21.052;2022-07-29T03:19:35;4.97;;;2.17;;
65996;SDS011;52765;52.258;21.052;2022-07-29T03:22:01;6.72;;;2.40;;
65996;SDS011;52765;52.258;21.052;2022-07-29T03:24:34;11.70;;;3.00;;
65996;SDS011;52765;52.258;21.052;2022-07-29T03:27:01;5.82;;;2.55;;
65996;SDS011;52765;52.258;21.052;2022-07-29T03:29:28;7.35;;;4.53;;
65996;SDS011;52765;52.258;21.052;2022-07-29T03:31:54;8.13;;;2.97;;
65996;SDS011;52765;52.258;21.052;2022-07-29T03:34:19;7.80;;;2.45;;
65996;SDS011;52765;52.258;21.052;2022-07-29T03:36:45;2.80;;;2.08;;
65996;SDS011;52765;52.258;21.052;2022-07-29T03:39:11;4.65;;;2.20;;
65996;SDS011;52765;52.258;21.052;2022-07-29T03:41:44;3.15;;;2.20;;
65996;SDS011;52765;52.258;21.052;2022-07-29T03:44:12;7.10;;;2.78;;
65996;SDS011;52765;52.258;21.052;2022-07-29T03:46:41;7.28;;;4.32;;
65996;SDS011;52765;52.258;21.052;2022-07-29T03:49:09;10.80;;;3.42;;
65996;SDS011;52765;52.258;21.052;2022-07-29T03:51:37;8.18;;;3.00;;
65996;SDS011;52765;52.258;21.052;2022-07-29T03:54:03;6.28;;;2.45;;
65996;SDS011;52765;52.258;21.052;2022-07-29T03:56:30;3.08;;;2.10;;
65996;SDS011;52765;52.258;21.052;2022-07-29T03:58:59;8.68;;;2.40;;
65996;SDS011;52765;52.258;21.052;2022-07-29T04:01:27;4.60;;;2.50;;
65996;SDS011;52765;52.258;21.052;2022-07-29T04:03:54;7.53;;;2.70;;
65996;SDS011;52765;52.258;21.052;2022-07-29T04:06:21;3.20;;;2.13;;
65996;SDS011;52765;52.258;21.052;2022-07-29T04:08:47;3.85;;;2.40;;
65996;SDS011;52765;52.258;21.052;2022-07-29T04:11:13;5.97;;;3.08;;
65996;SDS011;52765;52.258;21.052;2022-07-29T04:13:41;4.20;;;2.47;;
65996;SDS011;52765;52.258;21.052;2022-07-29T04:16:07;6.93;;;2.42;;
65996;SDS011;52765;52.258;21.052;2022-07-29T04:18:32;4.50;;;2.53;;
65996;SDS011;52765;52.258;21.052;2022-07-29T04:20:58;5.85;;;2.88;;
65996;SDS011;52765;52.258;21.052;2022-07-29T04:23:26;3.30;;;2.20;;
65996;SDS011;52765;52.258;21.052;2022-07-29T04:25:52;4.63;;;2.30;;
65996;SDS011;52765;52.258;21.052;2022-07-29T04:28:17;5.93;;;2.78;;
65996;SDS011;52765;52.258;21.052;2022-07-29T04:30:43;4.68;;;2.45;;
65996;SDS011;52765;52.258;21.052;2022-07-29T04:33:10;7.82;;;2.90;;
65996;SDS011;52765;52.258;21.052;2022-07-29T04:35:36;6.55;;;2.60;;
65996;SDS011;52765;52.258;21.052;2022-07-29T04:38:03;3.60;;;2.30;;
65996;SDS011;52765;52.258;21.052;2022-07-29T04:40:30;4.18;;;2.25;;
65996;SDS011;52765;52.258;21.052;2022-07-29T04:42:57;11.15;;;2.58;;
65996;SDS011;52765;52.258;21.052;2022-07-29T04:45:23;6.70;;;2.53;;
65996;SDS011;52765;52.258;21.052;2022-07-29T04:47:50;5.43;;;2.47;;
65996;SDS011;52765;52.258;21.052;2022-07-29T04:50:16;4.45;;;2.58;;
65996;SDS011;52765;52.258;21.052;2022-07-29T04:52:41;5.43;;;2.40;;
65996;SDS011;52765;52.258;21.052;2022-07-29T04:55:07;3.97;;;2.22;;
65996;SDS011;52765;52.258;21.052;2022-07-29T04:57:33;3.75;;;1.85;;
65996;SDS011;52765;52.258;21.052;2022-07-29T05:00:00;4.30;;;1.80;;
65996;SDS011;52765;52.258;21.052;2022-07-29T05:02:26;7.18;;;1.90;;
65996;SDS011;52765;52.258;21.052;2022-07-29T05:04:51;3.13;;;1.80;;
65996;SDS011;52765;52.258;21.052;2022-07-29T05:07:17;3.45;;;1.77;;
65996;SDS011;52765;52.258;21.052;2022-07-29T05:09:45;3.13;;;2.03;;
65996;SDS011;52765;52.258;21.052;2022-07-29T05:12:11;2.15;;;1.67;;
65996;SDS011;52765;52.258;21.052;2022-07-29T05:14:37;3.85;;;1.90;;
65996;SDS011;52765;52.258;21.052;2022-07-29T05:17:02;4.93;;;1.58;;
65996;SDS011;52765;52.258;21.052;2022-07-29T05:19:28;3.80;;;1.65;;
65996;SDS011;52765;52.258;21.052;2022-07-29T05:21:53;6.72;;;2.03;;
65996;SDS011;52765;52.258;21.052;2022-07-29T05:24:19;3.42;;;1.50;;
65996;SDS011;52765;52.258;21.052;2022-07-29T05:26:44;4.95;;;1.90;;
65996;SDS011;52765;52.258;21.052;2022-07-29T05:29:10;10.43;;;1.73;;
65996;SDS011;52765;52.258;21.052;2022-07-29T05:31:36;7.40;;;1.80;;
65996;SDS011;52765;52.258;21.052;2022-07-29T05:34:01;6.97;;;1.90;;
65996;SDS011;52765;52.258;21.052;2022-07-29T05:36:27;6.00;;;1.73;;
65996;SDS011;52765;52.258;21.052;2022-07-29T05:38:53;4.60;;;1.40;;
65996;SDS011;52765;52.258;21.052;2022-07-29T05:41:19;4.35;;;1.55;;
65996;SDS011;52765;52.258;21.052;2022-07-29T05:43:44;4.82;;;1.50;;
65996;SDS011;52765;52.258;21.052;2022-07-29T05:46:12;4.43;;;1.52;;
65996;SDS011;52765;52.258;21.052;2022-07-29T05:48:39;2.53;;;1.27;;
65996;SDS011;52765;52.258;21.052;2022-07-29T05:51:05;6.95;;;1.98;;
65996;SDS011;52765;52.258;21.052;2022-07-29T05:53:30;3.20;;;1.70;;
65996;SDS011;52765;52.258;21.052;2022-07-29T05:55:56;2.75;;;1.38;;
65996;SDS011;52765;52.258;21.052;2022-07-29T05:58:22;3.33;;;1.45;;
65996;SDS011;52765;52.258;21.052;2022-07-29T06:00:48;3.38;;;1.30;;
65996;SDS011;52765;52.258;21.052;2022-07-29T06:03:14;2.15;;;1.17;;
65996;SDS011;52765;52.258;21.052;2022-07-29T06:05:39;3.72;;;1.50;;
65996;SDS011;52765;52.258;21.052;2022-07-29T06:08:06;2.80;;;1.42;;
65996;SDS011;52765;52.258;21.052;2022-07-29T06:10:32;2.67;;;1.30;;
65996;SDS011;52765;52.258;21.052;2022-07-29T06:12:58;5.68;;;1.50;;
65996;SDS011;52765;52.258;21.052;2022-07-29T06:15:23;4.20;;;1.40;;
65996;SDS011;52765;52.258;21.052;2022-07-29T06:17:48;2.70;;;1.50;;
65996;SDS011;52765;52.258;21.052;2022-07-29T06:20:14;3.60;;;1.40;;
65996;SDS011;52765;52.258;21.052;2022-07-29T06:22:40;5.63;;;1.40;;
65996;SDS011;52765;52.258;21.052;2022-07-29T06:25:06;4.65;;;1.20;;
65996;SDS011;52765;52.258;21.052;2022-07-29T06:27:31;4.90;;;1.30;;
65996;SDS011;52765;52.258;21.052;2022-07-29T06:30:00;3.47;;;1.50;;
65996;SDS011;52765;52.258;21.052;2022-07-29T06:32:26;3.55;;;1.30;;
65996;SDS011;52765;52.258;21.052;2022-07-29T06:34:52;2.33;;;1.20;;
65996;SDS011;52765;52.258;21.052;2022-07-29T06:37:18;2.80;;;1.20;;
65996;SDS011;52765;52.258;21.052;2022-07-29T06:39:43;3.40;;;1.27;;
65996;SDS011;52765;52.258;21.052;2022-07-29T06:42:09;1.52;;;1.05;;
65996;SDS011;52765;52.258;21.052;2022-07-29T06:44:35;4.40;;;1.00;;
65996;SDS011;52765;52.258;21.052;2022-07-29T06:47:00;2.08;;;1.00;;
65996;SDS011;52765;52.258;21.052;2022-07-29T06:49:26;5.13;;;1.20;;
65996;SDS011;52765;52.258;21.052;2022-07-29T06:51:52;3.42;;;1.05;;
65996;SDS011;52765;52.258;21.052;2022-07-29T06:54:19;4.47;;;1.45;;
65996;SDS011;52765;52.258;21.052;2022-07-29T06:56:44;4.45;;;1.20;;
65996;SDS011;52765;52.258;21.052;2022-07-29T06:59:11;5.05;;;1.30;;
65996;SDS011;52765;52.258;21.052;2022-07-29T07:01:41;6.15;;;1.30;;
65996;SDS011;52765;52.258;21.052;2022-07-29T07:04:15;3.15;;;1.15;;
65996;SDS011;52765;52.258;21.052;2022-07-29T07:06:41;2.50;;;1.00;;
65996;SDS011;52765;52.258;21.052;2022-07-29T07:09:07;2.67;;;1.25;;
65996;SDS011;52765;52.258;21.052;2022-07-29T07:11:33;1.92;;;0.93;;
65996;SDS011;52765;52.258;21.052;2022-07-29T07:13:58;1.60;;;1.05;;
65996;SDS011;52765;52.258;21.052;2022-07-29T07:16:24;2.35;;;1.00;;
65996;SDS011;52765;52.258;21.052;2022-07-29T07:18:50;2.78;;;0.80;;
65996;SDS011;52765;52.258;21.052;2022-07-29T07:21:16;3.15;;;1.08;;
65996;SDS011;52765;52.258;21.052;2022-07-29T07:23:41;1.80;;;1.00;;
65996;SDS011;52765;52.258;21.052;2022-07-29T07:26:07;2.42;;;1.30;;
65996;SDS011;52765;52.258;21.052;2022-07-29T07:28:35;2.30;;;1.10;;
65996;SDS011;52765;52.258;21.052;2022-07-29T07:31:01;3.28;;;0.98;;
65996;SDS011;52765;52.258;21.052;2022-07-29T07:33:26;1.38;;;0.90;;
65996;SDS011;52765;52.258;21.052;2022-07-29T07:35:52;2.42;;;1.10;;
65996;SDS011;52765;52.258;21.052;2022-07-29T07:38:20;1.63;;;0.90;;
65996;SDS011;52765;52.258;21.052;2022-07-29T07:40:46;2.67;;;1.17;;
65996;SDS011;52765;52.258;21.052;2022-07-29T07:43:11;6.45;;;1.90;;
65996;SDS011;52765;52.258;21.052;2022-07-29T07:45:37;3.65;;;1.13;;
65996;SDS011;52765;52.258;21.052;2022-07-29T07:48:04;3.90;;;1.15;;
65996;SDS011;52765;52.258;21.052;2022-07-29T07:50:30;4.28;;;0.85;;
65996;SDS011;52765;52.258;21.052;2022-07-29T07:52:55;3.22;;;0.90;;
65996;SDS011;52765;52.258;21.052;2022-07-29T07:55:24;1.92;;;0.90;;
65996;SDS011;52765;52.258;21.052;2022-07-29T07:57:50;2.38;;;0.60;;
65996;SDS011;52765;52.258;21.052;2022-07-29T08:00:19;2.42;;;1.20;;
65996;SDS011;52765;52.258;21.052;2022-07-29T08:02:46;2.60;;;0.93;;
65996;SDS011;52765;52.258;21.052;2022-07-29T08:05:12;2.15;;;1.17;;
65996;SDS011;52765;52.258;21.052;2022-07-29T08:07:42;2.92;;;1.20;;
65996;SDS011;52765;52.258;21.052;2022-07-29T08:10:09;3.45;;;1.27;;
65996;SDS011;52765;52.258;21.052;2022-07-29T08:12:35;3.15;;;1.00;;
65996;SDS011;52765;52.258;21.052;2022-07-29T08:15:04;4.10;;;1.00;;
65996;SDS011;52765;52.258;21.052;2022-07-29T08:17:32;2.10;;;1.20;;
65996;SDS011;52765;52.258;21.052;2022-07-29T08:20:01;4.22;;;1.20;;
65996;SDS011;52765;52.258;21.052;2022-07-29T08:22:29;2.25;;;0.88;;
65996;SDS011;52765;52.258;21.052;2022-07-29T08:24:54;1.33;;;1.00;;
65996;SDS011;52765;52.258;21.052;2022-07-29T08:27:21;7.95;;;1.20;;
65996;SDS011;52765;52.258;21.052;2022-07-29T08:29:47;4.05;;;1.10;;
65996;SDS011;52765;52.258;21.052;2022-07-29T08:32:16;3.95;;;1.10;;
65996;SDS011;52765;52.258;21.052;2022-07-29T08:34:41;6.22;;;1.63;;
65996;SDS011;52765;52.258;21.052;2022-07-29T08:37:09;5.32;;;2.10;;
65996;SDS011;52765;52.258;21.052;2022-07-29T08:39:34;3.97;;;1.42;;
65996;SDS011;52765;52.258;21.052;2022-07-29T08:42:00;3.50;;;1.17;;
65996;SDS011;52765;52.258;21.052;2022-07-29T08:44:25;5.28;;;1.10;;
65996;SDS011;52765;52.258;21.052;2022-07-29T08:46:51;2.00;;;0.90;;
65996;SDS011;52765;52.258;21.052;2022-07-29T08:49:17;2.45;;;1.15;;
65996;SDS011;52765;52.258;21.052;2022-07-29T08:51:43;5.32;;;1.02;;
65996;SDS011;52765;52.258;21.052;2022-07-29T08:54:09;3.65;;;1.40;;
65996;SDS011;52765;52.258;21.052;2022-07-29T08:56:36;3.33;;;0.93;;
65996;SDS011;52765;52.258;21.052;2022-07-29T08:59:03;1.92;;;1.00;;
65996;SDS011;52765;52.258;21.052;2022-07-29T09:01:33;2.92;;;0.90;;
65996;SDS011;52765;52.258;21.052;2022-07-29T09:04:02;5.57;;;1.20;;
65996;SDS011;52765;52.258;21.052;2022-07-29T09:06:31;5.57;;;1.50;;
65996;SDS011;52765;52.258;21.052;2022-07-29T09:08:59;5.03;;;1.60;;
65996;SDS011;52765;52.258;21.052;2022-07-29T09:11:25;2.15;;;1.00;;
65996;SDS011;52765;52.258;21.052;2022-07-29T09:13:51;1.50;;;0.85;;
65996;SDS011;52765;52.258;21.052;2022-07-29T09:16:17;11.25;;;2.70;;
65996;SDS011;52765;52.258;21.052;2022-07-29T09:18:44;2.10;;;1.08;;
65996;SDS011;52765;52.258;21.052;2022-07-29T09:21:11;10.55;;;2.28;;
65996;SDS011;52765;52.258;21.052;2022-07-29T09:26:29;4.47;;;0.90;;
65996;SDS011;52765;52.258;21.052;2022-07-29T09:28:56;5.03;;;1.85;;
65996;SDS011;52765;52.258;21.052;2022-07-29T09:31:32;2.47;;;1.15;;
65996;SDS011;52765;52.258;21.052;2022-07-29T09:33:59;2.45;;;1.20;;
65996;SDS011;52765;52.258;21.052;2022-07-29T09:36:25;2.15;;;1.08;;
65996;SDS011;52765;52.258;21.052;2022-07-29T09:38:58;1.75;;;0.80;;
65996;SDS011;52765;52.258;21.052;2022-07-29T09:41:28;3.88;;;0.95;;
65996;SDS011;52765;52.258;21.052;2022-07-29T09:43:56;2.95;;;0.80;;
65996;SDS011;52765;52.258;21.052;2022-07-29T09:46:23;2.90;;;0.70;;
65996;SDS011;52765;52.258;21.052;2022-07-29T09:49:06;4.95;;;0.70;;
65996;SDS011;52765;52.258;21.052;2022-07-29T09:51:35;4.13;;;1.15;;
65996;SDS011;52765;52.258;21.052;2022-07-29T09:54:26;1.90;;;0.90;;
65996;SDS011;52765;52.258;21.052;2022-07-29T09:56:51;3.15;;;0.90;;
65996;SDS011;52765;52.258;21.052;2022-07-29T09:59:18;1.85;;;0.93;;
65996;SDS011;52765;52.258;21.052;2022-07-29T10:01:45;2.63;;;0.75;;
65996;SDS011;52765;52.258;21.052;2022-07-29T10:04:11;1.77;;;0.70;;
65996;SDS011;52765;52.258;21.052;2022-07-29T10:06:54;3.80;;;1.00;;
65996;SDS011;52765;52.258;21.052;2022-07-29T10:09:21;3.40;;;1.25;;
65996;SDS011;52765;52.258;21.052;2022-07-29T10:12:09;6.78;;;1.10;;
65996;SDS011;52765;52.258;21.052;2022-07-29T10:14:36;3.67;;;1.13;;
65996;SDS011;52765;52.258;21.052;2022-07-29T10:17:03;3.35;;;1.52;;
65996;SDS011;52765;52.258;21.052;2022-07-29T10:19:30;1.90;;;0.90;;
65996;SDS011;52765;52.258;21.052;2022-07-29T10:21:57;3.35;;;0.85;;
65996;SDS011;52765;52.258;21.052;2022-07-29T10:24:25;2.13;;;0.90;;
65996;SDS011;52765;52.258;21.052;2022-07-29T10:26:52;2.10;;;0.73;;
65996;SDS011;52765;52.258;21.052;2022-07-29T10:29:23;1.67;;;0.70;;
65996;SDS011;52765;52.258;21.052;2022-07-29T10:32:10;6.35;;;1.20;;
65996;SDS011;52765;52.258;21.052;2022-07-29T10:40:34;2.60;;;0.60;;
65996;SDS011;52765;52.258;21.052;2022-07-29T10:43:23;1.98;;;0.93;;
65996;SDS011;52765;52.258;21.052;2022-07-29T10:45:54;1.15;;;0.50;;
65996;SDS011;52765;52.258;21.052;2022-07-29T10:48:22;1.77;;;0.88;;
65996;SDS011;52765;52.258;21.052;2022-07-29T10:56:28;2.25;;;0.60;;
65996;SDS011;52765;52.258;21.052;2022-07-29T11:01:44;8.15;;;1.00;;
65996;SDS011;52765;52.258;21.052;2022-07-29T11:04:10;0.77;;;0.57;;
65996;SDS011;52765;52.258;21.052;2022-07-29T11:09:30;1.63;;;0.80;;
65996;SDS011;52765;52.258;21.052;2022-07-29T11:11:56;2.58;;;1.02;;
65996;SDS011;52765;52.258;21.052;2022-07-29T11:17:19;2.78;;;0.70;;
65996;SDS011;52765;52.258;21.052;2022-07-29T11:19:45;3.17;;;0.73;;
65996;SDS011;52765;52.258;21.052;2022-07-29T11:22:11;2.05;;;0.70;;
65996;SDS011;52765;52.258;21.052;2022-07-29T11:25:16;1.80;;;0.90;;
65996;SDS011;52765;52.258;21.052;2022-07-29T11:27:46;1.27;;;0.63;;
65996;SDS011;52765;52.258;21.052;2022-07-29T11:30:12;6.38;;;1.10;;
65996;SDS011;52765;52.258;21.052;2022-07-29T11:32:39;5.10;;;1.52;;
65996;SDS011;52765;52.258;21.052;2022-07-29T11:35:10;3.78;;;0.90;;
65996;SDS011;52765;52.258;21.052;2022-07-29T11:37:38;1.27;;;0.70;;
65996;SDS011;52765;52.258;21.052;2022-07-29T11:45:01;1.67;;;0.70;;
65996;SDS011;52765;52.258;21.052;2022-07-29T11:47:30;1.88;;;0.75;;
65996;SDS011;52765;52.258;21.052;2022-07-29T11:49:59;4.15;;;1.10;;
65996;SDS011;52765;52.258;21.052;2022-07-29T11:52:33;4.20;;;1.20;;
65996;SDS011;52765;52.258;21.052;2022-07-29T11:55:03;3.28;;;0.73;;
65996;SDS011;52765;52.258;21.052;2022-07-29T11:57:29;3.92;;;0.80;;
65996;SDS011;52765;52.258;21.052;2022-07-29T11:59:57;2.97;;;1.10;;
65996;SDS011;52765;52.258;21.052;2022-07-29T12:02:23;5.32;;;1.27;;
65996;SDS011;52765;52.258;21.052;2022-07-29T12:04:52;1.60;;;0.63;;
65996;SDS011;52765;52.258;21.052;2022-07-29T12:07:26;4.18;;;0.90;;
65996;SDS011;52765;52.258;21.052;2022-07-29T12:09:55;5.45;;;1.33;;
65996;SDS011;52765;52.258;21.052;2022-07-29T12:12:21;1.90;;;0.85;;
65996;SDS011;52765;52.258;21.052;2022-07-29T12:14:47;2.95;;;1.20;;
65996;SDS011;52765;52.258;21.052;2022-07-29T12:17:28;5.55;;;1.02;;
65996;SDS011;52765;52.258;21.052;2022-07-29T12:19:56;3.35;;;0.80;;
65996;SDS011;52765;52.258;21.052;2022-07-29T12:22:31;3.78;;;0.98;;
65996;SDS011;52765;52.258;21.052;2022-07-29T12:25:02;2.25;;;0.70;;
65996;SDS011;52765;52.258;21.052;2022-07-29T12:27:29;2.08;;;0.90;;
65996;SDS011;52765;52.258;21.052;2022-07-29T12:29:58;7.70;;;1.10;;
65996;SDS011;52765;52.258;21.052;2022-07-29T12:32:35;3.80;;;0.68;;
65996;SDS011;52765;52.258;21.052;2022-07-29T12:35:06;4.28;;;0.80;;
65996;SDS011;52765;52.258;21.052;2022-07-29T12:37:34;2.53;;;1.00;;
65996;SDS011;52765;52.258;21.052;2022-07-29T12:40:05;1.95;;;0.70;;
65996;SDS011;52765;52.258;21.052;2022-07-29T12:42:32;0.65;;;0.60;;
65996;SDS011;52765;52.258;21.052;2022-07-29T12:44:58;3.90;;;0.98;;
65996;SDS011;52765;52.258;21.052;2022-07-29T12:47:24;2.40;;;1.27;;
65996;SDS011;52765;52.258;21.052;2022-07-29T12:49:50;6.00;;;1.27;;
65996;SDS011;52765;52.258;21.052;2022-07-29T12:52:33;1.67;;;0.80;;
65996;SDS011;52765;52.258;21.052;2022-07-29T12:54:59;1.52;;;0.80;;
65996;SDS011;52765;52.258;21.052;2022-07-29T12:57:26;3.88;;;0.90;;
65996;SDS011;52765;52.258;21.052;2022-07-29T12:59:59;1.30;;;0.65;;
65996;SDS011;52765;52.258;21.052;2022-07-29T13:02:24;2.03;;;0.65;;
65996;SDS011;52765;52.258;21.052;2022-07-29T13:04:57;5.50;;;0.93;;
65996;SDS011;52765;52.258;21.052;2022-07-29T13:07:24;5.13;;;0.90;;
65996;SDS011;52765;52.258;21.052;2022-07-29T13:09:54;1.55;;;1.00;;
65996;SDS011;52765;52.258;21.052;2022-07-29T13:15:43;2.30;;;0.77;;
65996;SDS011;52765;52.258;21.052;2022-07-29T13:18:29;5.47;;;0.88;;
65996;SDS011;52765;52.258;21.052;2022-07-29T13:20:56;2.67;;;0.70;;
65996;SDS011;52765;52.258;21.052;2022-07-29T13:23:36;6.50;;;1.17;;
65996;SDS011;52765;52.258;21.052;2022-07-29T13:26:09;3.53;;;0.80;;
65996;SDS011;52765;52.258;21.052;2022-07-29T13:31:02;2.03;;;0.88;;
65996;SDS011;52765;52.258;21.052;2022-07-29T13:33:27;1.48;;;0.70;;
65996;SDS011;52765;52.258;21.052;2022-07-29T13:35:53;2.03;;;0.80;;
65996;SDS011;52765;52.258;21.052;2022-07-29T13:38:18;3.92;;;1.10;;
65996;SDS011;52765;52.258;21.052;2022-07-29T13:40:44;5.50;;;1.20;;
65996;SDS011;52765;52.258;21.052;2022-07-29T13:43:10;7.65;;;0.90;;
65996;SDS011;52765;52.258;21.052;2022-07-29T13:45:36;2.63;;;0.93;;
65996;SDS011;52765;52.258;21.052;2022-07-29T13:48:03;3.92;;;0.93;;
65996;SDS011;52765;52.258;21.052;2022-07-29T13:50:31;1.90;;;0.88;;
65996;SDS011;52765;52.258;21.052;2022-07-29T13:52:57;5.38;;;0.80;;
65996;SDS011;52765;52.258;21.052;2022-07-29T13:55:25;4.90;;;0.75;;
65996;SDS011;52765;52.258;21.052;2022-07-29T13:57:51;1.45;;;0.50;;
65996;SDS011;52765;52.258;21.052;2022-07-29T14:00:19;2.20;;;0.63;;
65996;SDS011;52765;52.258;21.052;2022-07-29T14:02:45;1.60;;;1.00;;
65996;SDS011;52765;52.258;21.052;2022-07-29T14:05:11;2.03;;;0.70;;
65996;SDS011;52765;52.258;21.052;2022-07-29T14:07:37;2.40;;;1.10;;
65996;SDS011;52765;52.258;21.052;2022-07-29T14:10:06;3.38;;;0.85;;
65996;SDS011;52765;52.258;21.052;2022-07-29T14:12:32;2.70;;;0.73;;
65996;SDS011;52765;52.258;21.052;2022-07-29T14:14:57;1.88;;;1.13;;
65996;SDS011;52765;52.258;21.052;2022-07-29T14:17:23;2.45;;;1.40;;
65996;SDS011;52765;52.258;21.052;2022-07-29T14:19:49;2.75;;;1.50;;
65996;SDS011;52765;52.258;21.052;2022-07-29T14:22:14;5.60;;;1.52;;
65996;SDS011;52765;52.258;21.052;2022-07-29T14:24:39;3.55;;;1.70;;
65996;SDS011;52765;52.258;21.052;2022-07-29T14:27:06;2.15;;;0.90;;
65996;SDS011;52765;52.258;21.052;2022-07-29T14:29:32;2.83;;;0.52;;
65996;SDS011;52765;52.258;21.052;2022-07-29T14:31:58;2.35;;;0.75;;
65996;SDS011;52765;52.258;21.052;2022-07-29T14:34:26;5.25;;;1.85;;
65996;SDS011;52765;52.258;21.052;2022-07-29T14:36:55;3.25;;;1.50;;
65996;SDS011;52765;52.258;21.052;2022-07-29T14:39:23;2.40;;;1.08;;
65996;SDS011;52765;52.258;21.052;2022-07-29T14:41:49;1.55;;;0.90;;
65996;SDS011;52765;52.258;21.052;2022-07-29T14:44:16;4.97;;;0.93;;
65996;SDS011;52765;52.258;21.052;2022-07-29T14:46:42;3.35;;;0.70;;
65996;SDS011;52765;52.258;21.052;2022-07-29T14:49:08;0.82;;;0.57;;
65996;SDS011;52765;52.258;21.052;2022-07-29T14:51:33;4.60;;;1.00;;
65996;SDS011;52765;52.258;21.052;2022-07-29T14:53:59;1.95;;;0.90;;
65996;SDS011;52765;52.258;21.052;2022-07-29T14:56:24;3.78;;;1.10;;
65996;SDS011;52765;52.258;21.052;2022-07-29T14:58:50;2.60;;;0.80;;
65996;SDS011;52765;52.258;21.052;2022-07-29T15:01:15;4.32;;;1.02;;
65996;SDS011;52765;52.258;21.052;2022-07-29T15:03:41;0.73;;;0.50;;
65996;SDS011;52765;52.258;21.052;2022-07-29T15:06:06;1.75;;;0.80;;
65996;SDS011;52765;52.258;21.052;2022-07-29T15:08:33;3.88;;;1.10;;
65996;SDS011;52765;52.258;21.052;2022-07-29T15:11:00;1.92;;;0.63;;
65996;SDS011;52765;52.258;21.052;2022-07-29T15:13:26;2.20;;;1.10;;
65996;SDS011;52765;52.258;21.052;2022-07-29T15:15:51;2.92;;;0.90;;
65996;SDS011;52765;52.258;21.052;2022-07-29T15:18:17;1.88;;;0.68;;
65996;SDS011;52765;52.258;21.052;2022-07-29T15:20:43;3.45;;;0.98;;
65996;SDS011;52765;52.258;21.052;2022-07-29T15:23:11;2.80;;;1.15;;
65996;SDS011;52765;52.258;21.052;2022-07-29T15:25:37;7.28;;;0.80;;
65996;SDS011;52765;52.258;21.052;2022-07-29T15:28:03;3.85;;;0.82;;
65996;SDS011;52765;52.258;21.052;2022-07-29T15:30:32;2.95;;;1.20;;
65996;SDS011;52765;52.258;21.052;2022-07-29T15:32:59;2.60;;;0.75;;